Time;durP1;ratioP1;P1;durP2;ratioP2;P2;SDS_P1;SDS_P2;PMS_P1;PMS_P2;Temp;Humidity;BMP_temperature;BMP_pressure;BME280_temperature;BME280_humidity;BME280_pressure;Samples;Min_cycle;Max_cycle;Signal;HPM_P1;HPM_P2
2022/11/27 00:02:24;;;;;;;14.10;10.13;;;;;;;;;;5074173;28;20475;-59
2022/11/27 00:04:52;;;;;;;14.57;10.10;;;;;;;;;;5075097;28;20505;-59
2022/11/27 00:07:19;;;;;;;18.23;10.57;;;;;;;;;;5074861;28;20448;-59
2022/11/27 00:09:47;;;;;;;20.07;11.67;;;;;;;;;;5074878;28;20884;-59
2022/11/27 00:12:14;;;;;;;15.60;10.77;;;;;;;;;;5074751;28;20451;-59
2022/11/27 00:14:41;;;;;;;14.83;10.13;;;;;;;;;;5074634;28;20486;-59
2022/11/27 00:17:08;;;;;;;14.40;9.73;;;;;;;;;;5074491;28;20483;-59
2022/11/27 00:19:36;;;;;;;13.63;9.03;;;;;;;;;;5074253;28;20448;-59
2022/11/27 00:22:04;;;;;;;13.80;10.90;;;;;;;;;;5074594;28;20542;-59
2022/11/27 00:24:32;;;;;;;15.87;9.50;;;;;;;;;;5074350;28;20455;-59
2022/11/27 00:26:59;;;;;;;21.47;10.10;;;;;;;;;;5074283;28;20452;-59
2022/11/27 00:29:28;;;;;;;14.90;9.40;;;;;;;;;;5074133;28;20443;-59
2022/11/27 00:31:55;;;;;;;12.00;9.00;;;;;;;;;;5074374;28;20547;-59
2022/11/27 00:34:23;;;;;;;12.47;9.40;;;;;;;;;;5074187;28;20447;-59
2022/11/27 00:36:50;;;;;;;12.97;9.10;;;;;;;;;;5074152;28;20483;-59
2022/11/27 00:39:19;;;;;;;10.27;7.70;;;;;;;;;;5074300;28;20480;-59
2022/11/27 00:41:46;;;;;;;12.57;9.83;;;;;;;;;;5074071;28;20458;-59
2022/11/27 00:44:13;;;;;;;10.33;9.20;;;;;;;;;;5073914;28;20447;-59
2022/11/27 00:46:41;;;;;;;12.90;8.53;;;;;;;;;;5073900;28;20871;-59
2022/11/27 00:49:09;;;;;;;13.00;9.70;;;;;;;;;;5074036;28;20448;-58
2022/11/27 00:51:36;;;;;;;15.03;8.93;;;;;;;;;;5073935;28;20448;-58
2022/11/27 00:54:03;;;;;;;14.33;9.80;;;;;;;;;;5073612;28;20448;-58
2022/11/27 00:56:33;;;;;;;14.20;9.80;;;;;;;;;;5073615;28;20585;-58
2022/11/27 00:59:00;;;;;;;12.10;8.50;;;;;;;;;;5073739;28;20455;-58
2022/11/27 01:01:28;;;;;;;11.03;8.47;;;;;;;;;;5073833;28;20865;-59
2022/11/27 01:03:56;;;;;;;10.23;8.53;;;;;;;;;;5073881;28;20800;-58
2022/11/27 01:06:23;;;;;;;13.73;10.13;;;;;;;;;;5073833;28;20460;-58
2022/11/27 01:08:52;;;;;;;13.40;9.37;;;;;;;;;;5073611;28;20820;-58
2022/11/27 01:11:20;;;;;;;17.27;9.47;;;;;;;;;;5073588;28;20444;-59
2022/11/27 01:13:49;;;;;;;15.10;9.53;;;;;;;;;;5073654;28;20444;-58
2022/11/27 01:16:17;;;;;;;12.90;8.90;;;;;;;;;;5073580;28;20478;-59
2022/11/27 01:18:46;;;;;;;10.53;8.63;;;;;;;;;;5073483;28;20451;-59
2022/11/27 01:21:13;;;;;;;21.77;9.03;;;;;;;;;;5073605;28;20543;-59
2022/11/27 01:23:41;;;;;;;12.83;9.30;;;;;;;;;;5073550;28;20482;-59
2022/11/27 01:26:09;;;;;;;13.27;8.53;;;;;;;;;;5073567;28;20504;-58
2022/11/27 01:28:38;;;;;;;11.07;9.20;;;;;;;;;;5073652;28;20526;-58
2022/11/27 01:31:07;;;;;;;12.63;8.33;;;;;;;;;;5073612;28;20451;-58
2022/11/27 01:33:35;;;;;;;16.20;9.60;;;;;;;;;;5073563;28;20456;-59
2022/11/27 01:36:03;;;;;;;15.97;10.13;;;;;;;;;;5073376;28;20937;-59
2022/11/27 01:38:31;;;;;;;16.50;9.97;;;;;;;;;;5073408;28;20848;-58
2022/11/27 01:40:59;;;;;;;15.40;9.77;;;;;;;;;;5073631;28;20482;-58
2022/11/27 01:43:40;;;;;;;20.03;10.90;;;;;;;;;;5073628;28;20939;-59
2022/11/27 01:46:13;;;;;;;15.60;10.83;;;;;;;;;;5073694;28;20452;-58
2022/11/27 01:48:40;;;;;;;14.07;8.53;;;;;;;;;;5073258;28;20514;-58
2022/11/27 01:51:08;;;;;;;10.20;7.50;;;;;;;;;;5073437;28;20494;-58
2022/11/27 01:53:35;;;;;;;11.40;8.87;;;;;;;;;;5073217;28;20455;-58
2022/11/27 01:56:04;;;;;;;13.50;8.13;;;;;;;;;;5073332;28;20454;-58
2022/11/27 01:58:32;;;;;;;12.10;8.60;;;;;;;;;;5073285;28;20448;-58
2022/11/27 02:00:59;;;;;;;23.57;11.50;;;;;;;;;;5073165;28;20447;-58
2022/11/27 02:03:28;;;;;;;33.10;19.50;;;;;;;;;;5073145;28;20463;-58
2022/11/27 02:05:55;;;;;;;30.90;15.90;;;;;;;;;;5073327;28;20471;-58
2022/11/27 02:08:22;;;;;;;25.70;14.90;;;;;;;;;;5072959;28;20458;-59
2022/11/27 02:10:51;;;;;;;27.20;13.40;;;;;;;;;;5073027;28;20448;-58
2022/11/27 02:13:21;;;;;;;20.17;13.43;;;;;;;;;;5073049;28;21000;-58
2022/11/27 02:15:51;;;;;;;17.90;12.30;;;;;;;;;;5073061;28;20448;-59
2022/11/27 02:18:23;;;;;;;18.97;11.50;;;;;;;;;;5073044;28;20484;-59
2022/11/27 02:20:54;;;;;;;13.97;10.17;;;;;;;;;;5073215;28;20448;-59
2022/11/27 02:23:42;;;;;;;11.73;9.50;;;;;;;;;;5073056;28;20478;-59
2022/11/27 02:26:24;;;;;;;14.17;11.27;;;;;;;;;;5075475;28;20448;-58
2022/11/27 02:28:59;;;;;;;25.57;13.27;;;;;;;;;;5076932;28;20458;-59
2022/11/27 02:31:29;;;;;;;16.00;11.80;;;;;;;;;;5076912;28;20508;-59
2022/11/27 02:33:59;;;;;;;29.37;18.90;;;;;;;;;;5076757;28;20531;-58
2022/11/27 02:36:29;;;;;;;30.50;16.17;;;;;;;;;;5076419;28;20562;-58
2022/11/27 02:39:00;;;;;;;20.80;12.77;;;;;;;;;;5076725;28;20447;-58
2022/11/27 02:41:28;;;;;;;19.10;10.97;;;;;;;;;;5076603;28;20546;-58
2022/11/27 02:43:56;;;;;;;15.90;11.13;;;;;;;;;;5076336;28;20471;-58
2022/11/27 02:46:27;;;;;;;18.70;11.10;;;;;;;;;;5076265;28;20533;-58
2022/11/27 02:48:57;;;;;;;13.17;10.93;;;;;;;;;;5076421;28;20982;-58
2022/11/27 02:51:27;;;;;;;16.83;11.00;;;;;;;;;;5076237;28;20486;-58
2022/11/27 02:53:57;;;;;;;18.00;11.90;;;;;;;;;;5076379;28;20638;-58
2022/11/27 02:56:26;;;;;;;15.37;11.00;;;;;;;;;;5076211;28;20475;-58
2022/11/27 02:58:56;;;;;;;18.40;10.73;;;;;;;;;;5076177;28;20448;-58
2022/11/27 03:01:26;;;;;;;12.43;9.90;;;;;;;;;;5076099;28;20526;-58
2022/11/27 03:03:53;;;;;;;12.10;9.87;;;;;;;;;;5076357;28;20448;-58
2022/11/27 03:06:23;;;;;;;17.07;11.37;;;;;;;;;;5075857;28;20927;-60
2022/11/27 03:08:54;;;;;;;14.83;10.73;;;;;;;;;;5076182;28;20455;-58
2022/11/27 03:11:21;;;;;;;13.90;10.50;;;;;;;;;;5075820;28;20455;-61
2022/11/27 03:13:51;;;;;;;17.80;11.80;;;;;;;;;;5075958;28;21020;-58
2022/11/27 03:16:23;;;;;;;23.97;11.57;;;;;;;;;;5075619;28;20448;-60
2022/11/27 03:18:57;;;;;;;16.17;11.97;;;;;;;;;;5075995;28;20574;-58
2022/11/27 03:21:31;;;;;;;19.07;12.57;;;;;;;;;;5075948;28;20456;-58
2022/11/27 03:23:59;;;;;;;13.93;10.10;;;;;;;;;;5075644;28;20455;-58
2022/11/27 03:26:26;;;;;;;18.83;11.80;;;;;;;;;;5075445;28;20444;-58
2022/11/27 03:28:54;;;;;;;14.87;10.20;;;;;;;;;;5075489;28;20455;-58
2022/11/27 03:31:22;;;;;;;19.97;13.80;;;;;;;;;;5075506;28;20923;-58
2022/11/27 03:33:51;;;;;;;16.37;10.87;;;;;;;;;;5075486;28;20479;-58
2022/11/27 03:36:19;;;;;;;16.60;11.27;;;;;;;;;;5074581;28;20451;-58
2022/11/27 03:38:47;;;;;;;16.77;11.17;;;;;;;;;;5075069;28;20826;-58
2022/11/27 03:41:20;;;;;;;14.97;10.43;;;;;;;;;;5075096;28;20456;-58
2022/11/27 03:43:53;;;;;;;17.83;10.83;;;;;;;;;;5075118;28;20483;-59
2022/11/27 03:46:24;;;;;;;15.80;11.20;;;;;;;;;;5075275;28;20523;-59
2022/11/27 03:48:59;;;;;;;17.00;11.30;;;;;;;;;;5074980;28;20480;-59
2022/11/27 03:51:30;;;;;;;16.43;10.57;;;;;;;;;;5074973;28;20505;-61
2022/11/27 03:54:00;;;;;;;18.03;10.77;;;;;;;;;;5075118;28;20451;-59
2022/11/27 03:56:34;;;;;;;18.10;9.60;;;;;;;;;;5075163;28;21005;-59
2022/11/27 03:59:03;;;;;;;17.40;10.23;;;;;;;;;;5075133;28;20452;-59
2022/11/27 04:01:31;;;;;;;17.70;10.40;;;;;;;;;;5075079;28;20452;-59
2022/11/27 04:04:00;;;;;;;11.87;9.27;;;;;;;;;;5074607;28;20506;-59
2022/11/27 04:06:27;;;;;;;13.40;9.50;;;;;;;;;;5074643;28;20448;-59
2022/11/27 04:08:55;;;;;;;12.50;9.20;;;;;;;;;;5074907;28;20501;-59
2022/11/27 04:11:22;;;;;;;16.27;11.00;;;;;;;;;;5074858;28;20819;-59
2022/11/27 04:13:51;;;;;;;13.90;8.97;;;;;;;;;;5074678;28;20452;-59
2022/11/27 04:16:18;;;;;;;20.93;11.13;;;;;;;;;;5074597;28;20444;-59
2022/11/27 04:18:45;;;;;;;16.27;9.77;;;;;;;;;;5074416;28;20564;-59
2022/11/27 04:21:15;;;;;;;13.67;9.90;;;;;;;;;;5074626;28;20451;-59
2022/11/27 04:23:43;;;;;;;13.60;9.73;;;;;;;;;;5074794;28;20487;-59
2022/11/27 04:26:10;;;;;;;13.30;9.47;;;;;;;;;;5074542;28;20455;-59
2022/11/27 04:28:37;;;;;;;14.77;10.10;;;;;;;;;;5074349;28;20447;-59
2022/11/27 04:31:05;;;;;;;13.93;10.47;;;;;;;;;;5074179;28;20456;-58
2022/11/27 04:33:34;;;;;;;13.50;9.70;;;;;;;;;;5074104;28;20540;-58
2022/11/27 04:36:01;;;;;;;15.53;8.40;;;;;;;;;;5074000;28;20491;-58
2022/11/27 04:38:29;;;;;;;13.60;8.63;;;;;;;;;;5074382;28;20548;-58
2022/11/27 04:40:57;;;;;;;14.50;9.93;;;;;;;;;;5074029;28;20448;-59
2022/11/27 04:43:24;;;;;;;16.27;9.40;;;;;;;;;;5074160;28;20495;-63
2022/11/27 04:45:51;;;;;;;13.13;9.93;;;;;;;;;;5073851;28;20459;-58
2022/11/27 04:48:18;;;;;;;16.00;8.97;;;;;;;;;;5073508;28;20480;-58
2022/11/27 04:50:46;;;;;;;11.60;8.80;;;;;;;;;;5074319;28;20451;-58
2022/11/27 04:53:13;;;;;;;15.07;9.10;;;;;;;;;;5073894;28;20861;-59
2022/11/27 04:55:42;;;;;;;11.73;8.53;;;;;;;;;;5073727;28;20458;-58
2022/11/27 04:58:09;;;;;;;11.80;9.07;;;;;;;;;;5073623;28;20483;-59
2022/11/27 05:00:36;;;;;;;15.07;9.13;;;;;;;;;;5073985;28;20542;-58
2022/11/27 05:03:03;;;;;;;14.37;9.27;;;;;;;;;;5073404;28;20508;-58
2022/11/27 05:05:30;;;;;;;15.17;9.47;;;;;;;;;;5073508;28;20452;-58
2022/11/27 05:07:58;;;;;;;10.40;8.97;;;;;;;;;;5073788;28;20460;-58
2022/11/27 05:10:25;;;;;;;10.60;8.53;;;;;;;;;;5073610;28;20448;-58
2022/11/27 05:12:54;;;;;;;11.90;8.60;;;;;;;;;;5073732;28;20448;-58
2022/11/27 05:15:23;;;;;;;14.43;8.90;;;;;;;;;;5073407;28;20923;-58
2022/11/27 05:17:50;;;;;;;12.00;8.47;;;;;;;;;;5073597;28;20483;-59
2022/11/27 05:20:17;;;;;;;13.10;8.23;;;;;;;;;;5073658;28;20912;-59
2022/11/27 05:22:47;;;;;;;13.30;8.37;;;;;;;;;;5073428;28;21000;-59
2022/11/27 05:25:14;;;;;;;16.60;9.30;;;;;;;;;;5073619;28;20498;-60
2022/11/27 05:27:41;;;;;;;14.60;9.07;;;;;;;;;;5073708;28;20863;-59
2022/11/27 05:30:10;;;;;;;14.93;9.37;;;;;;;;;;5073329;28;20443;-59
2022/11/27 05:32:38;;;;;;;15.87;9.83;;;;;;;;;;5073547;28;21052;-59
2022/11/27 05:35:05;;;;;;;13.60;9.80;;;;;;;;;;5073639;28;20936;-59
2022/11/27 05:37:32;;;;;;;15.50;9.60;;;;;;;;;;5073295;28;20883;-59
2022/11/27 05:40:00;;;;;;;10.57;8.57;;;;;;;;;;5073419;28;20448;-59
2022/11/27 05:42:27;;;;;;;20.90;10.40;;;;;;;;;;5073342;28;20456;-59
2022/11/27 05:44:54;;;;;;;14.33;9.97;;;;;;;;;;5073413;28;20517;-60
2022/11/27 05:47:23;;;;;;;11.80;9.50;;;;;;;;;;5073469;28;20487;-59
2022/11/27 05:49:50;;;;;;;16.07;9.73;;;;;;;;;;5073229;28;20470;-59
2022/11/27 05:52:17;;;;;;;14.13;10.30;;;;;;;;;;5073360;28;20462;-60
2022/11/27 05:54:45;;;;;;;17.00;9.70;;;;;;;;;;5073669;28;20444;-59
2022/11/27 05:57:12;;;;;;;12.20;9.20;;;;;;;;;;5073013;28;20545;-59
2022/11/27 05:59:39;;;;;;;15.43;9.57;;;;;;;;;;5073607;28;21008;-59
2022/11/27 06:02:06;;;;;;;13.07;10.47;;;;;;;;;;5077147;28;20482;-59
2022/11/27 06:04:35;;;;;;;12.27;10.30;;;;;;;;;;5077453;28;20497;-59
2022/11/27 06:07:02;;;;;;;13.33;9.00;;;;;;;;;;5077000;28;20483;-59
2022/11/27 06:09:29;;;;;;;14.93;9.67;;;;;;;;;;5077139;28;20489;-59
2022/11/27 06:11:57;;;;;;;12.90;9.40;;;;;;;;;;5076990;28;20459;-59
2022/11/27 06:14:24;;;;;;;15.63;9.70;;;;;;;;;;5077074;28;20958;-59
2022/11/27 06:16:51;;;;;;;21.70;10.47;;;;;;;;;;5077103;28;20482;-60
2022/11/27 06:19:18;;;;;;;15.40;9.40;;;;;;;;;;5076692;28;20482;-59
2022/11/27 06:21:47;;;;;;;13.30;9.20;;;;;;;;;;5076834;28;20819;-59
2022/11/27 06:24:14;;;;;;;13.60;9.17;;;;;;;;;;5076773;28;20455;-60
2022/11/27 06:26:41;;;;;;;11.10;9.23;;;;;;;;;;5077112;28;20451;-59
2022/11/27 06:29:09;;;;;;;13.03;9.60;;;;;;;;;;5076654;28;20497;-59
2022/11/27 06:31:37;;;;;;;11.93;8.70;;;;;;;;;;5076610;28;20447;-59
2022/11/27 06:34:05;;;;;;;14.07;8.70;;;;;;;;;;5076543;28;20458;-59
2022/11/27 06:36:33;;;;;;;15.93;11.87;;;;;;;;;;5076639;28;20447;-59
2022/11/27 06:39:02;;;;;;;12.13;10.90;;;;;;;;;;5076462;28;20488;-59
2022/11/27 06:41:30;;;;;;;17.20;11.40;;;;;;;;;;5076369;28;20593;-59
2022/11/27 06:43:58;;;;;;;14.87;10.67;;;;;;;;;;5076628;28;20543;-59
2022/11/27 06:46:25;;;;;;;14.83;10.57;;;;;;;;;;5076389;28;20447;-59
2022/11/27 06:48:55;;;;;;;14.17;10.20;;;;;;;;;;5076165;28;20532;-59
2022/11/27 06:51:24;;;;;;;17.13;9.97;;;;;;;;;;5076324;28;20508;-58
2022/11/27 06:53:51;;;;;;;12.60;9.67;;;;;;;;;;5076531;28;20455;-59
2022/11/27 06:56:20;;;;;;;10.53;9.43;;;;;;;;;;5076276;28;20459;-59
2022/11/27 06:58:51;;;;;;;11.23;8.97;;;;;;;;;;5076138;28;20515;-58
2022/11/27 07:01:18;;;;;;;13.10;9.07;;;;;;;;;;5076247;28;20452;-59
2022/11/27 07:03:46;;;;;;;12.37;10.60;;;;;;;;;;5075927;28;20538;-59
2022/11/27 07:06:15;;;;;;;14.73;10.70;;;;;;;;;;5076230;28;20459;-58
2022/11/27 07:08:42;;;;;;;12.00;9.10;;;;;;;;;;5075996;28;20484;-59
2022/11/27 07:11:11;;;;;;;11.83;10.10;;;;;;;;;;5075619;28;20450;-59
2022/11/27 07:13:40;;;;;;;13.27;10.03;;;;;;;;;;5075781;28;20444;-59
2022/11/27 07:16:08;;;;;;;11.33;8.80;;;;;;;;;;5075971;28;20468;-59
2022/11/27 07:18:36;;;;;;;11.98;10.07;;;;;;;;;;5075782;28;20551;-59
2022/11/27 07:21:04;;;;;;;10.90;9.20;;;;;;;;;;5075646;28;20190;-59
2022/11/27 07:23:31;;;;;;;12.83;9.57;;;;;;;;;;5075741;28;20455;-59
2022/11/27 07:25:59;;;;;;;13.50;9.23;;;;;;;;;;5075656;28;20448;-59
2022/11/27 07:28:26;;;;;;;13.70;10.03;;;;;;;;;;5075405;28;20551;-59
2022/11/27 07:30:59;;;;;;;13.20;8.80;;;;;;;;;;5075683;28;20455;-59
2022/11/27 07:33:26;;;;;;;12.33;9.37;;;;;;;;;;5075546;28;20504;-59
2022/11/27 07:35:58;;;;;;;16.83;10.77;;;;;;;;;;5075898;28;20459;-58
2022/11/27 07:38:26;;;;;;;14.23;10.33;;;;;;;;;;5075447;28;20529;-59
2022/11/27 07:40:53;;;;;;;15.37;10.47;;;;;;;;;;5075190;28;20459;-58
2022/11/27 07:43:21;;;;;;;11.40;10.03;;;;;;;;;;5075523;28;20448;-58
2022/11/27 07:45:48;;;;;;;11.60;10.40;;;;;;;;;;5075375;28;20486;-58
2022/11/27 07:48:17;;;;;;;13.37;11.03;;;;;;;;;;5075135;28;20884;-59
2022/11/27 07:50:44;;;;;;;15.30;11.33;;;;;;;;;;5075151;28;20546;-59
2022/11/27 07:53:12;;;;;;;14.77;10.70;;;;;;;;;;5074996;28;20951;-58
2022/11/27 07:55:39;;;;;;;15.20;12.30;;;;;;;;;;5075035;28;20949;-58
2022/11/27 07:58:06;;;;;;;16.63;11.37;;;;;;;;;;5074858;28;20577;-58
2022/11/27 08:00:33;;;;;;;13.10;10.00;;;;;;;;;;5075026;28;20458;-58
2022/11/27 08:03:01;;;;;;;14.00;11.83;;;;;;;;;;5075014;28;20510;-59
2022/11/27 08:05:29;;;;;;;12.13;10.53;;;;;;;;;;5074886;28;20451;-58
2022/11/27 08:08:00;;;;;;;16.03;12.47;;;;;;;;;;5074788;28;20506;-58
2022/11/27 08:10:27;;;;;;;18.57;12.30;;;;;;;;;;5075207;28;20454;-58
2022/11/27 08:12:54;;;;;;;14.00;11.20;;;;;;;;;;5074718;28;20509;-59
2022/11/27 08:15:22;;;;;;;13.80;10.90;;;;;;;;;;5074830;28;21003;-58
2022/11/27 08:17:49;;;;;;;16.87;10.60;;;;;;;;;;5074538;28;20958;-58
2022/11/27 08:20:18;;;;;;;14.30;11.50;;;;;;;;;;5074563;28;20873;-58
2022/11/27 08:22:47;;;;;;;13.03;11.10;;;;;;;;;;5073863;28;20448;-58
2022/11/27 08:25:15;;;;;;;16.30;11.43;;;;;;;;;;5074616;28;20968;-58
2022/11/27 08:27:42;;;;;;;17.90;11.03;;;;;;;;;;5074699;28;20450;-59
2022/11/27 08:30:09;;;;;;;17.53;11.73;;;;;;;;;;5074552;28;21057;-58
2022/11/27 08:32:39;;;;;;;13.87;10.37;;;;;;;;;;5074227;28;20448;-58
2022/11/27 08:35:07;;;;;;;15.27;10.97;;;;;;;;;;5074231;28;20448;-59
2022/11/27 08:37:34;;;;;;;18.63;11.33;;;;;;;;;;5074237;28;20447;-58
2022/11/27 08:40:03;;;;;;;14.00;9.37;;;;;;;;;;5074229;28;20486;-58
2022/11/27 08:42:30;;;;;;;15.30;10.43;;;;;;;;;;5073970;28;20945;-59
2022/11/27 08:44:58;;;;;;;14.33;10.03;;;;;;;;;;5074058;28;20452;-58
2022/11/27 08:47:25;;;;;;;12.50;9.93;;;;;;;;;;5073530;28;20850;-58
2022/11/27 08:49:52;;;;;;;12.37;9.90;;;;;;;;;;5073287;28;20504;-58
2022/11/27 08:52:20;;;;;;;12.60;10.47;;;;;;;;;;5073026;28;20455;-59
2022/11/27 08:54:47;;;;;;;16.10;11.33;;;;;;;;;;5073191;28;20511;-59
2022/11/27 08:57:17;;;;;;;13.53;9.90;;;;;;;;;;5073143;28;20444;-59
2022/11/27 08:59:44;;;;;;;12.57;9.60;;;;;;;;;;5073037;28;20481;-59
2022/11/27 09:02:12;;;;;;;10.43;9.10;;;;;;;;;;5072926;28;20454;-59
2022/11/27 09:04:40;;;;;;;23.43;12.13;;;;;;;;;;5072912;28;20545;-59
2022/11/27 09:07:07;;;;;;;11.27;9.50;;;;;;;;;;5073107;28;20482;-59
2022/11/27 09:09:34;;;;;;;12.00;10.63;;;;;;;;;;5073000;28;20444;-59
2022/11/27 09:12:01;;;;;;;18.50;10.10;;;;;;;;;;5073043;28;20443;-59
2022/11/27 09:14:30;;;;;;;12.33;8.83;;;;;;;;;;5072966;28;20454;-59
2022/11/27 09:16:58;;;;;;;11.40;9.97;;;;;;;;;;5073111;28;20443;-59
2022/11/27 09:19:25;;;;;;;11.10;9.20;;;;;;;;;;5072653;28;20540;-59
2022/11/27 09:21:52;;;;;;;12.03;9.47;;;;;;;;;;5072885;28;20451;-59
2022/11/27 09:24:20;;;;;;;13.63;10.37;;;;;;;;;;5072966;28;20463;-59
2022/11/27 09:26:47;;;;;;;11.93;9.40;;;;;;;;;;5072806;28;20466;-60
2022/11/27 09:29:14;;;;;;;16.50;10.53;;;;;;;;;;5072451;28;20457;-59
2022/11/27 09:31:42;;;;;;;15.50;9.83;;;;;;;;;;5072435;28;20524;-58
2022/11/27 09:34:09;;;;;;;12.60;9.47;;;;;;;;;;5071939;28;20788;-58
2022/11/27 09:36:37;;;;;;;16.10;10.03;;;;;;;;;;5072159;28;20504;-59
2022/11/27 09:39:04;;;;;;;11.03;8.50;;;;;;;;;;5072383;28;20483;-59
2022/11/27 09:41:41;;;;;;;11.97;8.70;;;;;;;;;;5072253;28;20501;-59
2022/11/27 09:44:16;;;;;;;12.33;8.60;;;;;;;;;;5072379;28;20902;-59
2022/11/27 09:46:45;;;;;;;15.77;9.40;;;;;;;;;;5033866;28;1087936;-59
2022/11/27 09:49:15;;;;;;;13.70;8.87;;;;;;;;;;5073398;28;20829;-59
2022/11/27 09:51:45;;;;;;;12.00;9.50;;;;;;;;;;5073092;28;20929;-59
2022/11/27 09:54:16;;;;;;;16.83;9.87;;;;;;;;;;5073391;28;20473;-59
2022/11/27 09:56:46;;;;;;;11.63;8.40;;;;;;;;;;5073121;28;20483;-59
2022/11/27 09:59:16;;;;;;;14.53;9.77;;;;;;;;;;5073279;28;20495;-59
2022/11/27 10:01:45;;;;;;;16.70;9.47;;;;;;;;;;5072884;28;20467;-59
2022/11/27 10:04:14;;;;;;;12.90;8.33;;;;;;;;;;5072975;28;20451;-59
2022/11/27 10:06:48;;;;;;;11.23;9.50;;;;;;;;;;5073030;28;20475;-59
2022/11/27 10:09:19;;;;;;;10.43;8.30;;;;;;;;;;5073288;28;20446;-59
2022/11/27 10:11:51;;;;;;;9.30;7.70;;;;;;;;;;5073206;28;20497;-59
2022/11/27 10:14:28;;;;;;;10.30;8.70;;;;;;;;;;5073022;28;20504;-59
2022/11/27 10:17:00;;;;;;;12.67;10.03;;;;;;;;;;5073135;28;20502;-59
2022/11/27 10:19:32;;;;;;;11.20;9.40;;;;;;;;;;5072801;28;20578;-59
2022/11/27 10:22:03;;;;;;;10.63;7.60;;;;;;;;;;5073197;28;20803;-59
2022/11/27 10:24:35;;;;;;;11.13;8.30;;;;;;;;;;5073037;28;20450;-59
2022/11/27 10:27:05;;;;;;;10.70;7.60;;;;;;;;;;5072985;28;20447;-59
2022/11/27 10:29:36;;;;;;;13.20;8.97;;;;;;;;;;5072904;28;20454;-59
2022/11/27 10:32:11;;;;;;;9.90;8.00;;;;;;;;;;5073122;28;20447;-60
2022/11/27 10:34:40;;;;;;;11.57;7.40;;;;;;;;;;5073097;28;20949;-60
2022/11/27 10:37:13;;;;;;;10.67;7.60;;;;;;;;;;5072891;28;20451;-59
2022/11/27 10:39:43;;;;;;;11.43;7.13;;;;;;;;;;5072654;28;20515;-59
2022/11/27 10:42:12;;;;;;;11.07;8.30;;;;;;;;;;5073082;28;20475;-59
2022/11/27 10:44:42;;;;;;;13.27;7.87;;;;;;;;;;5072618;28;20452;-60
2022/11/27 10:47:13;;;;;;;11.10;7.47;;;;;;;;;;5075139;28;20485;-59
2022/11/27 10:49:41;;;;;;;10.40;6.77;;;;;;;;;;5076182;28;20553;-59
2022/11/27 10:52:12;;;;;;;10.77;6.87;;;;;;;;;;5076128;28;20543;-59
2022/11/27 10:54:40;;;;;;;12.90;7.50;;;;;;;;;;5076100;28;20538;-60
2022/11/27 10:57:23;;;;;;;10.93;7.40;;;;;;;;;;5076155;28;20487;-60
2022/11/27 10:59:55;;;;;;;11.10;7.63;;;;;;;;;;5076143;28;20486;-59
2022/11/27 11:02:29;;;;;;;9.80;7.40;;;;;;;;;;5076088;28;20501;-60
2022/11/27 11:04:56;;;;;;;12.20;6.67;;;;;;;;;;5075963;28;20466;-60
2022/11/27 11:07:25;;;;;;;11.87;7.80;;;;;;;;;;5076220;28;20473;-60
2022/11/27 11:09:52;;;;;;;7.70;6.90;;;;;;;;;;5075890;28;20481;-59
2022/11/27 11:12:20;;;;;;;9.47;6.90;;;;;;;;;;5075793;28;20551;-59
2022/11/27 11:14:51;;;;;;;8.30;6.87;;;;;;;;;;5075835;28;20566;-60
2022/11/27 11:17:18;;;;;;;6.90;6.20;;;;;;;;;;5075894;28;20444;-59
2022/11/27 11:19:47;;;;;;;7.20;5.93;;;;;;;;;;5075882;28;20479;-59
2022/11/27 11:22:16;;;;;;;7.10;6.40;;;;;;;;;;5075897;28;20778;-60
2022/11/27 11:24:46;;;;;;;9.03;6.20;;;;;;;;;;5075939;28;20811;-60
2022/11/27 11:27:15;;;;;;;6.10;5.50;;;;;;;;;;5075755;28;20452;-59
2022/11/27 11:29:43;;;;;;;9.60;6.93;;;;;;;;;;5075795;28;20448;-60
2022/11/27 11:32:11;;;;;;;8.77;6.73;;;;;;;;;;5075327;28;20776;-59
2022/11/27 11:34:42;;;;;;;7.07;6.40;;;;;;;;;;5075871;28;20869;-60
2022/11/27 11:37:20;;;;;;;7.77;5.73;;;;;;;;;;5075509;28;20491;-60
2022/11/27 11:39:52;;;;;;;7.20;5.10;;;;;;;;;;5074890;28;20838;-59
2022/11/27 11:42:21;;;;;;;7.00;5.30;;;;;;;;;;5075526;28;20843;-60
2022/11/27 11:44:51;;;;;;;6.17;5.57;;;;;;;;;;5075408;28;20448;-59
2022/11/27 11:47:18;;;;;;;9.23;4.83;;;;;;;;;;5075229;28;20476;-60
2022/11/27 11:49:47;;;;;;;7.80;5.50;;;;;;;;;;5075219;28;21006;-59
2022/11/27 11:52:23;;;;;;;6.43;4.97;;;;;;;;;;5075013;28;20451;-59
2022/11/27 11:54:58;;;;;;;7.17;5.80;;;;;;;;;;5075038;28;20455;-59
2022/11/27 11:57:33;;;;;;;10.30;5.53;;;;;;;;;;5074022;28;20845;-59
2022/11/27 12:00:03;;;;;;;11.53;6.40;;;;;;;;;;5074823;28;20479;-60
2022/11/27 12:02:44;;;;;;;8.00;7.20;;;;;;;;;;5075157;28;20819;-60
2022/11/27 12:05:25;;;;;;;7.70;6.43;;;;;;;;;;5074993;28;21000;-59
2022/11/27 12:08:00;;;;;;;7.30;6.00;;;;;;;;;;5075097;28;20448;-59
2022/11/27 12:10:31;;;;;;;6.33;5.70;;;;;;;;;;5075014;28;21009;-60
2022/11/27 12:13:02;;;;;;;8.10;5.97;;;;;;;;;;5074730;28;20541;-60
2022/11/27 12:15:30;;;;;;;11.30;6.70;;;;;;;;;;5074787;28;20448;-59
2022/11/27 12:18:00;;;;;;;8.57;6.10;;;;;;;;;;5074604;28;20448;-59
2022/11/27 12:20:34;;;;;;;7.93;5.40;;;;;;;;;;5074794;28;20479;-60
2022/11/27 12:23:24;;;;;;;6.23;5.60;;;;;;;;;;5074610;28;20448;-59
2022/11/27 12:25:58;;;;;;;7.27;5.53;;;;;;;;;;5074748;28;20452;-60
2022/11/27 12:28:32;;;;;;;8.77;5.97;;;;;;;;;;5074390;28;20452;-59
2022/11/27 12:31:04;;;;;;;6.93;4.77;;;;;;;;;;5074483;28;20508;-60
2022/11/27 12:33:40;;;;;;;5.80;5.10;;;;;;;;;;5074493;28;20460;-59
2022/11/27 12:36:14;;;;;;;8.63;6.03;;;;;;;;;;5074436;28;20479;-61
2022/11/27 12:38:50;;;;;;;7.67;6.10;;;;;;;;;;5074186;28;20849;-60
2022/11/27 12:41:28;;;;;;;6.97;5.83;;;;;;;;;;5074204;28;20479;-60
2022/11/27 12:43:59;;;;;;;12.07;7.30;;;;;;;;;;5074183;28;20455;-59
2022/11/27 12:46:29;;;;;;;9.87;5.70;;;;;;;;;;5074241;28;20491;-59
2022/11/27 12:48:58;;;;;;;6.87;5.87;;;;;;;;;;5073930;28;20486;-59
2022/11/27 12:51:28;;;;;;;8.60;6.63;;;;;;;;;;5074033;28;20517;-60
2022/11/27 12:54:00;;;;;;;7.90;6.80;;;;;;;;;;5073728;28;20534;-59
2022/11/27 12:56:29;;;;;;;5.90;5.30;;;;;;;;;;5073961;28;20455;-59
2022/11/27 12:58:59;;;;;;;10.43;5.80;;;;;;;;;;5073781;28;20447;-59
2022/11/27 13:01:28;;;;;;;7.03;6.33;;;;;;;;;;5073695;28;20484;-59
2022/11/27 13:04:02;;;;;;;11.37;6.00;;;;;;;;;;5073802;28;20935;-59
2022/11/27 13:06:31;;;;;;;5.80;4.87;;;;;;;;;;5073757;28;20456;-59
2022/11/27 13:09:01;;;;;;;7.00;6.30;;;;;;;;;;5073553;28;20447;-59
2022/11/27 13:11:31;;;;;;;6.40;5.83;;;;;;;;;;5073845;28;20448;-59
2022/11/27 13:14:01;;;;;;;8.97;5.63;;;;;;;;;;5073473;28;20538;-60
2022/11/27 13:16:32;;;;;;;6.50;5.10;;;;;;;;;;5073645;28;20462;-59
2022/11/27 13:19:02;;;;;;;7.80;4.97;;;;;;;;;;5073830;28;20447;-59
2022/11/27 13:21:30;;;;;;;9.00;5.93;;;;;;;;;;5073589;28;20483;-60
2022/11/27 13:24:00;;;;;;;5.87;5.27;;;;;;;;;;5073713;28;20452;-59
2022/11/27 13:26:31;;;;;;;8.53;6.07;;;;;;;;;;5073601;28;20444;-60
2022/11/27 13:29:00;;;;;;;7.47;5.40;;;;;;;;;;5073777;28;20447;-59
2022/11/27 13:31:29;;;;;;;7.50;5.30;;;;;;;;;;5073606;28;20462;-59
2022/11/27 13:33:59;;;;;;;7.93;5.40;;;;;;;;;;5073461;28;20452;-59
2022/11/27 13:36:28;;;;;;;7.70;5.80;;;;;;;;;;5073516;28;20447;-61
2022/11/27 13:39:10;;;;;;;7.30;4.77;;;;;;;;;;5073442;28;20527;-65
2022/11/27 13:41:42;;;;;;;4.97;4.47;;;;;;;;;;5070639;28;20544;-59
2022/11/27 13:44:22;;;;;;;8.50;5.10;;;;;;;;;;5073649;28;20470;-59
2022/11/27 13:46:53;;;;;;;6.33;4.20;;;;;;;;;;5073303;28;20838;-59
2022/11/27 13:49:24;;;;;;;14.00;5.10;;;;;;;;;;5073337;28;20444;-59
2022/11/27 13:51:51;;;;;;;11.10;4.90;;;;;;;;;;5073126;28;20550;-59
2022/11/27 13:54:19;;;;;;;5.47;4.93;;;;;;;;;;5073529;28;20487;-59
2022/11/27 13:56:48;;;;;;;7.33;4.93;;;;;;;;;;5073330;28;20506;-59
2022/11/27 13:59:16;;;;;;;6.40;4.60;;;;;;;;;;5073272;28;20499;-59
2022/11/27 14:01:53;;;;;;;9.03;4.23;;;;;;;;;;5073051;28;20483;-59
2022/11/27 14:04:20;;;;;;;4.07;3.77;;;;;;;;;;5073029;28;20934;-59
2022/11/27 14:06:52;;;;;;;5.80;4.40;;;;;;;;;;5072921;28;20491;-59
2022/11/27 14:09:19;;;;;;;4.70;4.23;;;;;;;;;;5073223;28;20538;-59
2022/11/27 14:11:49;;;;;;;8.60;4.43;;;;;;;;;;5072974;28;20466;-59
2022/11/27 14:14:19;;;;;;;5.80;4.77;;;;;;;;;;5072989;28;20505;-59
2022/11/27 14:16:57;;;;;;;7.90;4.83;;;;;;;;;;5072549;28;20985;-59
2022/11/27 14:19:26;;;;;;;6.37;4.90;;;;;;;;;;5073025;28;20525;-59
2022/11/27 14:21:53;;;;;;;6.50;4.30;;;;;;;;;;5074878;28;20479;-60
2022/11/27 14:24:25;;;;;;;9.13;5.20;;;;;;;;;;5076690;28;20529;-59
2022/11/27 14:26:54;;;;;;;4.20;3.77;;;;;;;;;;5076346;28;20526;-60
2022/11/27 14:29:21;;;;;;;6.77;5.10;;;;;;;;;;5076466;28;20443;-59
2022/11/27 14:31:57;;;;;;;6.77;5.20;;;;;;;;;;5076382;28;20451;-59
2022/11/27 14:34:28;;;;;;;9.43;4.87;;;;;;;;;;5076198;28;20457;-59
2022/11/27 14:36:55;;;;;;;6.63;4.63;;;;;;;;;;5076203;28;20451;-59
2022/11/27 14:39:23;;;;;;;5.13;4.63;;;;;;;;;;5076090;28;20491;-60
2022/11/27 14:41:57;;;;;;;11.97;5.03;;;;;;;;;;5076193;28;20484;-59